Time;durP1;ratioP1;P1;durP2;ratioP2;P2;SDS_P1;SDS_P2;PMS_P1;PMS_P2;Temp;Humidity;BMP_temperature;BMP_pressure;BME280_temperature;BME280_humidity;BME280_pressure;Samples;Min_cycle;Max_cycle;Signal;HPM_P1;HPM_P2
2022/07/24 00:00:59;;;;;;;;;;;23.30;87.10;;;;;;5020516;27;19925;-79
2022/07/24 00:03:26;;;;;;;;;;;23.30;87.00;;;;;;5027828;27;20201;-79
2022/07/24 00:05:53;;;;;;;;;;;23.30;86.90;;;;;;5028426;27;19986;-79
2022/07/24 00:08:22;;;;;;;;;;;23.30;86.90;;;;;;5019176;27;20377;-78
2022/07/24 00:10:48;;;;;;;;;;;23.20;86.60;;;;;;5020283;27;20415;-78
2022/07/24 00:13:15;;;;;;;;;;;23.20;86.80;;;;;;5018426;27;20379;-77
2022/07/24 00:15:42;;;;;;;;;;;23.20;86.80;;;;;;5021492;27;19929;-79
2022/07/24 00:18:09;;;;;;;;;;;23.20;86.80;;;;;;5020898;27;20006;-77
2022/07/24 00:20:36;;;;;;;;;;;23.20;86.90;;;;;;5018184;27;20340;-79
2022/07/24 00:23:03;;;;;;;;;;;23.10;86.90;;;;;;5015951;28;20406;-77
2022/07/24 00:25:31;;;;;;;;;;;23.10;86.90;;;;;;5016193;28;20033;-79
2022/07/24 00:27:58;;;;;;;;;;;23.10;87.00;;;;;;5025015;27;19930;-79
2022/07/24 00:30:25;;;;;;;;;;;23.10;87.00;;;;;;5012404;27;19933;-78
2022/07/24 00:32:52;;;;;;;;;;;23.10;87.00;;;;;;5017789;27;20379;-79
2022/07/24 00:35:19;;;;;;;;;;;;;;;;;;5084398;27;19978;-79
2022/07/24 00:37:47;;;;;;;;;;;23.00;86.10;;;;;;5022734;27;19956;-78
2022/07/24 00:40:15;;;;;;;;;;;23.00;86.70;;;;;;5022142;28;19925;-79
2022/07/24 00:42:43;;;;;;;;;;;23.00;86.80;;;;;;5024367;27;19933;-79
2022/07/24 00:45:11;;;;;;;;;;;22.90;86.70;;;;;;5012590;27;19936;-79
2022/07/24 00:47:38;;;;;;;;;;;22.90;86.80;;;;;;5106914;27;20503;-79
2022/07/24 00:50:05;;;;;;;;;;;22.90;86.90;;;;;;5017121;28;20668;-78
2022/07/24 00:52:32;;;;;;;;;;;22.90;87.00;;;;;;5021667;27;19929;-78
2022/07/24 00:54:59;;;;;;;;;;;22.90;87.20;;;;;;5023993;27;19927;-79
2022/07/24 00:57:26;;;;;;;;;;;22.90;87.20;;;;;;5018252;27;20696;-79
2022/07/24 00:59:54;;;;;;;;;;;22.80;87.20;;;;;;5031774;27;20414;-79
2022/07/24 01:02:21;;;;;;;;;;;22.80;87.20;;;;;;5027522;27;20005;-79
2022/07/24 01:04:48;;;;;;;;;;;22.80;87.20;;;;;;5016678;27;20317;-78
2022/07/24 01:07:15;;;;;;;;;;;22.80;87.20;;;;;;5082072;27;19960;-79
2022/07/24 01:09:42;;;;;;;;;;;22.80;87.30;;;;;;5016663;28;19926;-77
2022/07/24 01:12:09;;;;;;;;;;;22.70;87.10;;;;;;5013895;28;19937;-79
2022/07/24 01:14:36;;;;;;;;;;;22.70;87.00;;;;;;5012908;27;19933;-77
2022/07/24 01:17:04;;;;;;;;;;;22.70;87.10;;;;;;5018153;28;19933;-79
2022/07/24 01:19:31;;;;;;;;;;;22.60;87.00;;;;;;5010643;27;19932;-79
2022/07/24 01:21:59;;;;;;;;;;;22.60;87.00;;;;;;5030689;27;19923;-79
2022/07/24 01:24:26;;;;;;;;;;;22.60;87.20;;;;;;5019212;27;19932;-79
2022/07/24 01:26:53;;;;;;;;;;;22.60;87.20;;;;;;5022104;27;19970;-78
2022/07/24 01:29:20;;;;;;;;;;;22.60;87.40;;;;;;5065474;27;19929;-79
2022/07/24 01:31:47;;;;;;;;;;;22.50;87.50;;;;;;5023882;27;19975;-78
2022/07/24 01:34:13;;;;;;;;;;;22.50;87.60;;;;;;5014513;27;19925;-79
2022/07/24 01:36:40;;;;;;;;;;;22.50;87.60;;;;;;5025320;28;20264;-79
2022/07/24 01:39:09;;;;;;;;;;;22.50;87.80;;;;;;5023235;27;19933;-78
2022/07/24 01:41:35;;;;;;;;;;;22.50;87.90;;;;;;5026612;27;20403;-79
2022/07/24 01:44:02;;;;;;;;;;;22.50;88.00;;;;;;5083676;28;19934;-79
2022/07/24 01:46:29;;;;;;;;;;;22.40;87.90;;;;;;5017296;28;19956;-79
2022/07/24 01:48:56;;;;;;;;;;;22.40;87.90;;;;;;5019242;28;19969;-79
2022/07/24 01:51:23;;;;;;;;;;;22.40;88.00;;;;;;5026676;28;19929;-78
2022/07/24 01:53:50;;;;;;;;;;;22.40;88.10;;;;;;5094332;27;20001;-78
2022/07/24 01:56:18;;;;;;;;;;;22.30;88.00;;;;;;5017630;28;19965;-79
2022/07/24 01:58:45;;;;;;;;;;;22.30;87.80;;;;;;5014793;28;19924;-77
2022/07/24 02:01:11;;;;;;;;;;;22.30;87.80;;;;;;5097297;27;19969;-78
2022/07/24 02:03:38;;;;;;;;;;;22.30;87.80;;;;;;5041875;27;19929;-79
2022/07/24 02:06:05;;;;;;;;;;;22.20;87.60;;;;;;5018454;27;19944;-79
2022/07/24 02:08:32;;;;;;;;;;;22.20;87.80;;;;;;5080545;27;20001;-78
2022/07/24 02:10:59;;;;;;;;;;;22.20;87.60;;;;;;5011253;28;19973;-79
2022/07/24 02:13:27;;;;;;;;;;;22.20;87.80;;;;;;5018696;28;19941;-78
2022/07/24 02:15:54;;;;;;;;;;;22.20;87.90;;;;;;5015278;28;19968;-79
2022/07/24 02:18:21;;;;;;;;;;;22.10;87.90;;;;;;5019943;27;19972;-79
2022/07/24 02:20:48;;;;;;;;;;;22.10;88.00;;;;;;5024919;27;19931;-77
2022/07/24 02:23:17;;;;;;;;;;;22.10;88.20;;;;;;5081561;27;19933;-79
2022/07/24 02:25:45;;;;;;;;;;;22.10;88.40;;;;;;5016690;28;20312;-78
2022/07/24 02:28:12;;;;;;;;;;;22.00;88.30;;;;;;5018486;28;19940;-78
2022/07/24 02:30:40;;;;;;;;;;;22.00;88.50;;;;;;5102679;27;20731;-77
2022/07/24 02:33:07;;;;;;;;;;;22.00;88.40;;;;;;5016708;27;19935;-79
2022/07/24 02:35:34;;;;;;;;;;;22.00;88.50;;;;;;5012812;28;19925;-79
2022/07/24 02:38:01;;;;;;;;;;;21.90;88.40;;;;;;5025695;28;19929;-79
2022/07/24 02:40:28;;;;;;;;;;;21.90;88.50;;;;;;5016240;28;19990;-78
2022/07/24 02:42:55;;;;;;;;;;;21.90;88.50;;;;;;5083720;28;19925;-79
2022/07/24 02:45:22;;;;;;;;;;;21.90;88.60;;;;;;5020168;27;20394;-78
2022/07/24 02:47:50;;;;;;;;;;;21.90;88.60;;;;;;5014540;28;19954;-77
2022/07/24 02:50:17;;;;;;;;;;;21.90;88.50;;;;;;5015266;27;19925;-79
2022/07/24 02:52:44;;;;;;;;;;;21.80;88.50;;;;;;5016852;28;20302;-79
2022/07/24 02:55:11;;;;;;;;;;;21.80;88.40;;;;;;5078935;28;20357;-79
2022/07/24 02:57:38;;;;;;;;;;;21.80;88.40;;;;;;5016024;28;19929;-79
2022/07/24 03:00:06;;;;;;;;;;;21.80;88.40;;;;;;5085301;27;19932;-78
2022/07/24 03:02:33;;;;;;;;;;;21.70;88.40;;;;;;5016949;28;19936;-79
2022/07/24 03:05:02;;;;;;;;;;;21.70;88.30;;;;;;5080163;28;19929;-79
2022/07/24 03:07:29;;;;;;;;;;;21.70;88.30;;;;;;5023360;28;19932;-77
2022/07/24 03:09:56;;;;;;;;;;;21.70;88.20;;;;;;5015222;27;19952;-77
2022/07/24 03:12:22;;;;;;;;;;;21.60;88.00;;;;;;5018832;28;19932;-79
2022/07/24 03:14:49;;;;;;;;;;;21.60;88.00;;;;;;5016920;28;20349;-78
2022/07/24 03:17:16;;;;;;;;;;;21.60;88.10;;;;;;5014928;28;20386;-77
2022/07/24 03:19:43;;;;;;;;;;;21.60;88.10;;;;;;5082241;28;19925;-79
2022/07/24 03:22:12;;;;;;;;;;;21.60;88.10;;;;;;5017332;28;19933;-78
2022/07/24 03:24:38;;;;;;;;;;;21.50;88.00;;;;;;5077779;28;20025;-79
2022/07/24 03:27:05;;;;;;;;;;;21.50;88.00;;;;;;5022907;28;20398;-78
2022/07/24 03:29:32;;;;;;;;;;;21.50;88.00;;;;;;5020320;28;19936;-79
2022/07/24 03:31:59;;;;;;;;;;;21.50;88.00;;;;;;5018635;28;19971;-79
2022/07/24 03:34:26;;;;;;;;;;;21.40;87.90;;;;;;5017083;28;19992;-79
2022/07/24 03:36:53;;;;;;;;;;;21.40;88.00;;;;;;5029375;27;19963;-79
2022/07/24 03:39:21;;;;;;;;;;;21.40;88.00;;;;;;5029779;27;19929;-77
2022/07/24 03:41:48;;;;;;;;;;;21.30;87.90;;;;;;5102664;27;19929;-78
2022/07/24 03:44:15;;;;;;;;;;;21.30;88.00;;;;;;5082877;27;19933;-79
2022/07/24 03:46:42;;;;;;;;;;;21.30;88.00;;;;;;5093221;28;19970;-79
2022/07/24 03:49:09;;;;;;;;;;;21.30;88.00;;;;;;5016798;28;20053;-78
2022/07/24 03:51:35;;;;;;;;;;;21.30;88.10;;;;;;5083596;28;19925;-78
2022/07/24 03:54:02;;;;;;;;;;;21.20;88.00;;;;;;5083391;27;19990;-79
2022/07/24 03:56:31;;;;;;;;;;;21.20;87.90;;;;;;5024415;27;20364;-79
2022/07/24 03:58:58;;;;;;;;;;;21.20;87.90;;;;;;5017784;27;19978;-79
2022/07/24 04:01:24;;;;;;;;;;;21.10;87.90;;;;;;5023011;27;19935;-78
2022/07/24 04:03:51;;;;;;;;;;;21.10;87.70;;;;;;5014010;27;20381;-79
2022/07/24 04:06:18;;;;;;;;;;;21.10;87.60;;;;;;5085114;27;19925;-78
2022/07/24 04:08:47;;;;;;;;;;;21.00;87.60;;;;;;5027815;27;19933;-78
2022/07/24 04:11:13;;;;;;;;;;;21.10;87.90;;;;;;5019603;27;19979;-79
2022/07/24 04:13:42;;;;;;;;;;;21.00;88.00;;;;;;5092323;27;19959;-79
2022/07/24 04:16:08;;;;;;;;;;;21.00;87.90;;;;;;5023179;27;19932;-77
2022/07/24 04:18:35;;;;;;;;;;;21.00;87.80;;;;;;5034099;27;19966;-79
2022/07/24 04:21:02;;;;;;;;;;;20.90;87.90;;;;;;5076135;27;20564;-78
2022/07/24 04:23:29;;;;;;;;;;;20.90;87.90;;;;;;5084898;28;20463;-78
2022/07/24 04:25:56;;;;;;;;;;;20.80;87.70;;;;;;5085452;27;19931;-78
2022/07/24 04:28:23;;;;;;;;;;;20.80;87.90;;;;;;5018929;28;20267;-78
2022/07/24 04:30:51;;;;;;;;;;;20.80;87.90;;;;;;5018234;27;19925;-78
2022/07/24 04:33:18;;;;;;;;;;;20.80;87.90;;;;;;5018328;27;20011;-77
2022/07/24 04:35:45;;;;;;;;;;;20.80;88.00;;;;;;5022953;28;20399;-79
2022/07/24 04:38:12;;;;;;;;;;;20.70;88.00;;;;;;5013390;27;19933;-78
2022/07/24 04:40:39;;;;;;;;;;;20.70;88.30;;;;;;5017202;27;19931;-79
2022/07/24 04:43:05;;;;;;;;;;;20.70;88.40;;;;;;5084672;28;19994;-78
2022/07/24 04:45:32;;;;;;;;;;;20.70;88.40;;;;;;5017618;28;20488;-79
2022/07/24 04:48:01;;;;;;;;;;;20.70;88.10;;;;;;5077646;27;19928;-79
2022/07/24 04:50:28;;;;;;;;;;;20.70;88.00;;;;;;5026653;27;19928;-78
2022/07/24 04:52:55;;;;;;;;;;;20.60;88.30;;;;;;5086826;27;20398;-78
2022/07/24 04:55:22;;;;;;;;;;;20.60;88.40;;;;;;5082213;27;20010;-77
2022/07/24 04:57:48;;;;;;;;;;;20.60;88.40;;;;;;5018943;27;20002;-78
2022/07/24 05:00:16;;;;;;;;;;;20.60;88.40;;;;;;5018930;28;20698;-79
2022/07/24 05:02:42;;;;;;;;;;;20.50;87.90;;;;;;5030886;27;19929;-79
2022/07/24 05:05:11;;;;;;;;;;;20.50;87.90;;;;;;5032793;27;19925;-78
2022/07/24 05:07:38;;;;;;;;;;;20.50;87.80;;;;;;5014515;28;19978;-78
2022/07/24 05:10:05;;;;;;;;;;;20.50;88.20;;;;;;5098134;27;19998;-78
2022/07/24 05:12:32;;;;;;;;;;;20.50;88.30;;;;;;5014733;27;19925;-77
2022/07/24 05:15:00;;;;;;;;;;;;;;;;;;5080043;28;19949;-78
2022/07/24 05:17:27;;;;;;;;;;;20.40;86.30;;;;;;5044430;23;19925;-80
2022/07/24 05:19:54;;;;;;;;;;;;;;;;;;5033029;28;19928;-79
2022/07/24 05:22:23;;;;;;;;;;;20.30;86.00;;;;;;5023526;28;19929;-78
2022/07/24 05:24:49;;;;;;;;;;;20.20;87.10;;;;;;5016801;28;19925;-77
2022/07/24 05:27:16;;;;;;;;;;;20.10;88.00;;;;;;5034065;28;19932;-77
2022/07/24 05:29:43;;;;;;;;;;;20.10;88.50;;;;;;5038257;28;19933;-77
2022/07/24 05:32:10;;;;;;;;;;;20.10;88.40;;;;;;5035705;28;20391;-77
2022/07/24 05:34:37;;;;;;;;;;;20.00;89.20;;;;;;5035625;28;20375;-77
2022/07/24 05:37:04;;;;;;;;;;;20.00;89.10;;;;;;5033923;28;19929;-78
2022/07/24 05:39:32;;;;;;;;;;;20.00;89.40;;;;;;5031753;28;19990;-77
2022/07/24 05:41:59;;;;;;;;;;;20.00;89.60;;;;;;5033656;28;20983;-77
2022/07/24 05:44:26;;;;;;;;;;;20.00;90.00;;;;;;5037461;28;20357;-77
2022/07/24 05:46:53;;;;;;;;;;;20.10;90.30;;;;;;5040763;28;20626;-77
2022/07/24 05:49:19;;;;;;;;;;;20.10;90.30;;;;;;5039793;28;20435;-77
2022/07/24 05:51:46;;;;;;;;;;;20.10;90.20;;;;;;5040531;28;20367;-77
2022/07/24 05:54:13;;;;;;;;;;;20.10;90.40;;;;;;5041831;28;19929;-78
2022/07/24 05:56:41;;;;;;;;;;;20.10;90.10;;;;;;5026111;28;19986;-77
2022/07/24 05:59:08;;;;;;;;;;;20.10;90.00;;;;;;5038961;28;20378;-77
2022/07/24 06:01:35;;;;;;;;;;;20.10;90.00;;;;;;5039737;28;20337;-77
2022/07/24 06:04:02;;;;;;;;;;;20.10;90.00;;;;;;5025355;28;19979;-78
2022/07/24 06:06:29;;;;;;;;;;;20.10;90.00;;;;;;5044177;28;19929;-77
2022/07/24 06:08:56;;;;;;;;;;;20.20;90.00;;;;;;5044811;28;19971;-77
2022/07/24 06:11:23;;;;;;;;;;;20.20;90.00;;;;;;5039947;28;19964;-78
2022/07/24 06:13:51;;;;;;;;;;;20.20;90.00;;;;;;5039757;28;19928;-79
2022/07/24 06:16:18;;;;;;;;;;;20.20;90.00;;;;;;5045943;28;20395;-77
2022/07/24 06:18:45;;;;;;;;;;;20.20;90.10;;;;;;5040291;28;19940;-77
2022/07/24 06:21:12;;;;;;;;;;;20.20;90.10;;;;;;5040899;28;19982;-77
2022/07/24 06:23:39;;;;;;;;;;;20.20;90.10;;;;;;5039077;28;20036;-77
2022/07/24 06:26:05;;;;;;;;;;;20.20;90.00;;;;;;5040920;28;20350;-78
2022/07/24 06:28:32;;;;;;;;;;;20.30;90.10;;;;;;5041013;28;20294;-78
2022/07/24 06:31:00;;;;;;;;;;;20.30;90.00;;;;;;5038795;28;19925;-77
2022/07/24 06:33:27;;;;;;;;;;;20.30;90.00;;;;;;5026876;28;19937;-78
2022/07/24 06:35:54;;;;;;;;;;;20.30;90.00;;;;;;5041382;28;19929;-78
2022/07/24 06:38:21;;;;;;;;;;;20.30;89.90;;;;;;5039208;28;19932;-77
2022/07/24 06:40:48;;;;;;;;;;;20.40;89.90;;;;;;5027470;28;20473;-78
2022/07/24 06:43:15;;;;;;;;;;;20.40;89.90;;;;;;5044077;28;19932;-78
2022/07/24 06:45:43;;;;;;;;;;;20.50;90.00;;;;;;5040008;28;19925;-78
2022/07/24 06:48:11;;;;;;;;;;;20.50;89.80;;;;;;5042446;28;19981;-77
2022/07/24 06:50:38;;;;;;;;;;;20.50;89.70;;;;;;5028451;28;19932;-78
2022/07/24 06:53:05;;;;;;;;;;;20.50;89.70;;;;;;5024993;28;20434;-78
2022/07/24 06:55:31;;;;;;;;;;;20.50;89.60;;;;;;5040568;28;20333;-77
2022/07/24 06:57:58;;;;;;;;;;;20.50;89.50;;;;;;5025794;28;19925;-78
2022/07/24 07:00:25;;;;;;;;;;;20.50;89.60;;;;;;5038904;28;19999;-77
2022/07/24 07:02:52;;;;;;;;;;;20.60;89.60;;;;;;5042445;28;19929;-77
2022/07/24 07:05:20;;;;;;;;;;;20.60;89.70;;;;;;5038380;28;19925;-77
2022/07/24 07:07:47;;;;;;;;;;;20.60;89.60;;;;;;5044054;28;20333;-77
2022/07/24 07:10:14;;;;;;;;;;;20.60;89.50;;;;;;5042529;28;19925;-78
2022/07/24 07:12:41;;;;;;;;;;;20.60;89.50;;;;;;5037781;28;19924;-78
2022/07/24 07:15:08;;;;;;;;;;;20.70;89.70;;;;;;5044969;28;19947;-77
2022/07/24 07:17:37;;;;;;;;;;;20.70;89.60;;;;;;5038753;28;20292;-78
2022/07/24 07:20:04;;;;;;;;;;;20.70;89.60;;;;;;5021971;28;19991;-77
2022/07/24 07:22:32;;;;;;;;;;;20.70;89.70;;;;;;5035495;28;19935;-78
2022/07/24 07:24:59;;;;;;;;;;;20.70;89.70;;;;;;5043069;28;19924;-77
2022/07/24 07:27:26;;;;;;;;;;;20.70;89.70;;;;;;5041433;28;19972;-77
2022/07/24 07:29:53;;;;;;;;;;;20.80;89.80;;;;;;5038713;28;19929;-77
2022/07/24 07:32:19;;;;;;;;;;;20.80;89.80;;;;;;5025406;28;20303;-77
2022/07/24 07:34:46;;;;;;;;;;;20.80;89.70;;;;;;5037637;28;20014;-77
2022/07/24 07:37:13;;;;;;;;;;;20.80;90.00;;;;;;5040411;28;20023;-79
2022/07/24 07:39:41;;;;;;;;;;;20.80;89.80;;;;;;5042006;28;19936;-78
2022/07/24 07:42:08;;;;;;;;;;;20.90;89.90;;;;;;5036974;28;19935;-78
2022/07/24 07:44:35;;;;;;;;;;;20.90;89.80;;;;;;5035097;28;19929;-77
2022/07/24 07:47:02;;;;;;;;;;;20.90;89.90;;;;;;5037684;28;20066;-77
2022/07/24 07:49:29;;;;;;;;;;;21.00;90.00;;;;;;5039966;28;19929;-78
2022/07/24 07:51:56;;;;;;;;;;;21.00;90.00;;;;;;5035832;28;19940;-77
2022/07/24 07:54:22;;;;;;;;;;;21.00;90.00;;;;;;5040736;28;19929;-78
2022/07/24 07:56:51;;;;;;;;;;;21.00;89.90;;;;;;5025510;28;19932;-78
2022/07/24 07:59:17;;;;;;;;;;;21.00;89.90;;;;;;5035556;28;19932;-79
2022/07/24 08:01:44;;;;;;;;;;;21.00;89.80;;;;;;5041913;28;19928;-82
2022/07/24 08:04:11;;;;;;;;;;;21.10;90.00;;;;;;5030052;28;19982;-81
2022/07/24 08:06:38;;;;;;;;;;;21.10;89.90;;;;;;5043798;28;19928;-80
2022/07/24 08:09:05;;;;;;;;;;;21.10;89.80;;;;;;5042435;28;19929;-81
2022/07/24 08:11:32;;;;;;;;;;;21.10;89.80;;;;;;5043027;28;19928;-80
2022/07/24 08:14:00;;;;;;;;;;;21.10;89.70;;;;;;5026315;28;20346;-82
2022/07/24 08:16:27;;;;;;;;;;;21.10;89.80;;;;;;5039422;28;19925;-81
2022/07/24 08:18:54;;;;;;;;;;;21.10;89.70;;;;;;5041404;28;19972;-80
2022/07/24 08:21:21;;;;;;;;;;;21.20;89.80;;;;;;5041941;28;19929;-80
2022/07/24 08:23:48;;;;;;;;;;;21.10;89.70;;;;;;5044035;28;20331;-80
2022/07/24 08:26:16;;;;;;;;;;;21.20;89.80;;;;;;5026058;28;19979;-80
2022/07/24 08:28:43;;;;;;;;;;;21.20;89.80;;;;;;5042502;28;19968;-82
2022/07/24 08:31:13;;;;;;;;;;;21.20;89.70;;;;;;5045691;28;19956;-80
2022/07/24 08:33:39;;;;;;;;;;;21.30;89.70;;;;;;5041400;28;19928;-82
2022/07/24 08:36:07;;;;;;;;;;;21.30;89.60;;;;;;5038277;28;19964;-81
2022/07/24 08:38:33;;;;;;;;;;;21.30;89.60;;;;;;5043518;28;19936;-81
2022/07/24 08:41:00;;;;;;;;;;;21.30;89.70;;;;;;5026654;28;19964;-81
2022/07/24 08:43:28;;;;;;;;;;;21.30;89.60;;;;;;5046194;28;20403;-83
2022/07/24 08:45:55;;;;;;;;;;;21.30;89.60;;;;;;5042274;28;20310;-81
2022/07/24 08:48:24;;;;;;;;;;;21.30;89.60;;;;;;5044982;28;19925;-81
2022/07/24 08:50:51;;;;;;;;;;;21.30;89.50;;;;;;5036428;28;19986;-82
2022/07/24 08:53:20;;;;;;;;;;;21.30;89.50;;;;;;5024052;28;19932;-82
2022/07/24 08:55:47;;;;;;;;;;;21.30;89.50;;;;;;5021627;28;19983;-81
2022/07/24 08:58:13;;;;;;;;;;;21.30;89.40;;;;;;5044689;28;20647;-82
2022/07/24 09:00:41;;;;;;;;;;;21.40;89.50;;;;;;5042895;28;19933;-81
2022/07/24 09:03:08;;;;;;;;;;;21.40;89.40;;;;;;5043060;28;19951;-83
2022/07/24 09:05:52;;;;;;;;;;;21.40;89.40;;;;;;5044608;28;19928;-81
2022/07/24 09:08:19;;;;;;;;;;;21.40;89.30;;;;;;5042280;28;19926;-82
2022/07/24 09:10:54;;;;;;;;;;;21.40;89.30;;;;;;5041486;28;21329;-81
2022/07/24 09:13:20;;;;;;;;;;;21.40;89.40;;;;;;5041335;28;19925;-83
2022/07/24 09:15:48;;;;;;;;;;;21.50;89.50;;;;;;5044716;28;19963;-80
2022/07/24 09:18:28;;;;;;;;;;;21.50;89.40;;;;;;5041789;28;19929;-81
2022/07/24 09:20:57;;;;;;;;;;;21.50;89.50;;;;;;5044337;28;19925;-79
2022/07/24 09:23:24;;;;;;;;;;;21.60;89.60;;;;;;5043755;28;19929;-80
2022/07/24 09:25:52;;;;;;;;;;;21.60;89.40;;;;;;5045676;28;19948;-78
2022/07/24 09:28:20;;;;;;;;;;;21.60;89.40;;;;;;5040336;28;19937;-78
2022/07/24 09:30:48;;;;;;;;;;;21.60;89.40;;;;;;5044566;28;19929;-79
2022/07/24 09:33:16;;;;;;;;;;;21.60;89.40;;;;;;5039318;28;19956;-79
2022/07/24 09:35:44;;;;;;;;;;;21.60;89.40;;;;;;5042646;28;20138;-79
2022/07/24 09:38:13;;;;;;;;;;;21.60;89.40;;;;;;5019085;28;20052;-80
2022/07/24 09:40:41;;;;;;;;;;;21.60;89.30;;;;;;5038923;28;20387;-79
2022/07/24 09:43:18;;;;;;;;;;;21.70;89.40;;;;;;5042531;28;19925;-79
2022/07/24 09:45:53;;;;;;;;;;;21.70;89.40;;;;;;5042618;28;19925;-80
2022/07/24 09:48:21;;;;;;;;;;;21.70;89.30;;;;;;5043615;28;19998;-79
2022/07/24 09:50:50;;;;;;;;;;;21.80;89.40;;;;;;5043839;28;20006;-79
2022/07/24 09:53:19;;;;;;;;;;;21.80;89.60;;;;;;5044299;28;20465;-79
2022/07/24 09:55:46;;;;;;;;;;;21.80;89.50;;;;;;5048608;28;19936;-80
2022/07/24 09:58:17;;;;;;;;;;;21.80;89.50;;;;;;5045230;28;20008;-80
2022/07/24 10:00:44;;;;;;;;;;;21.90;89.60;;;;;;5041016;28;19939;-79
2022/07/24 10:03:14;;;;;;;;;;;21.90;89.60;;;;;;5039506;28;19925;-79
2022/07/24 10:05:43;;;;;;;;;;;21.90;89.70;;;;;;5044348;28;20356;-81
2022/07/24 10:08:11;;;;;;;;;;;21.90;89.70;;;;;;5047549;28;19925;-80
2022/07/24 10:10:41;;;;;;;;;;;21.90;89.60;;;;;;5045393;28;20391;-79
2022/07/24 10:13:08;;;;;;;;;;;21.90;89.70;;;;;;5042457;28;19925;-78
2022/07/24 10:15:38;;;;;;;;;;;21.90;89.60;;;;;;5039918;28;19972;-78
2022/07/24 10:18:16;;;;;;;;;;;22.00;89.70;;;;;;5041021;28;19967;-78
2022/07/24 10:20:44;;;;;;;;;;;22.00;89.70;;;;;;5041287;28;19925;-77
2022/07/24 10:23:16;;;;;;;;;;;22.00;89.70;;;;;;5018248;28;20374;-79
2022/07/24 10:25:52;;;;;;;;;;;22.00;89.60;;;;;;5041795;28;19995;-77
2022/07/24 10:28:26;;;;;;;;;;;22.00;89.60;;;;;;5042189;28;19925;-79
2022/07/24 10:30:53;;;;;;;;;;;22.00;89.40;;;;;;5026492;28;20725;-78
2022/07/24 10:33:20;;;;;;;;;;;22.10;89.40;;;;;;5043893;28;19985;-78
2022/07/24 10:35:48;;;;;;;;;;;22.00;89.30;;;;;;5048107;28;20003;-78
2022/07/24 10:38:18;;;;;;;;;;;22.00;89.20;;;;;;5043516;28;19944;-79
2022/07/24 10:40:46;;;;;;;;;;;22.00;89.20;;;;;;5044734;28;19936;-78
2022/07/24 10:43:15;;;;;;;;;;;22.10;89.20;;;;;;5041531;28;19931;-78
2022/07/24 10:45:43;;;;;;;;;;;22.10;89.10;;;;;;5043782;28;20023;-77
2022/07/24 10:48:35;;;;;;;;;;;22.20;89.20;;;;;;5023867;28;20003;-78
2022/07/24 10:51:09;;;;;;;;;;;22.20;89.20;;;;;;5024605;28;20453;-79
2022/07/24 10:53:46;;;;;;;;;;;22.20;89.10;;;;;;5028592;28;19970;-78
2022/07/24 10:56:17;;;;;;;;;;;22.20;89.00;;;;;;5040017;28;19925;-77
2022/07/24 10:58:56;;;;;;;;;;;22.20;89.00;;;;;;5027982;28;19925;-78
2022/07/24 11:01:37;;;;;;;;;;;22.30;89.00;;;;;;5044077;28;19935;-77
2022/07/24 11:04:24;;;;;;;;;;;22.20;88.80;;;;;;5029001;28;19925;-79
2022/07/24 11:06:52;;;;;;;;;;;22.30;88.90;;;;;;5037594;28;19932;-79
2022/07/24 11:09:19;;;;;;;;;;;22.30;88.70;;;;;;5024886;28;19956;-78
2022/07/24 11:12:01;;;;;;;;;;;22.30;88.80;;;;;;5042310;28;20020;-79
2022/07/24 11:14:47;;;;;;;;;;;22.30;88.70;;;;;;5038426;28;19932;-78
2022/07/24 11:17:28;;;;;;;;;;;22.30;88.60;;;;;;5042617;28;19935;-78
2022/07/24 11:19:58;;;;;;;;;;;22.30;88.80;;;;;;5046386;22;19973;-83
2022/07/24 11:22:37;;;;;;;;;;;22.40;88.60;;;;;;5052255;28;19950;-81
2022/07/24 11:25:08;;;;;;;;;;;22.40;88.20;;;;;;5041562;28;19924;-82
2022/07/24 11:27:52;;;;;;;;;;;22.40;88.00;;;;;;5042105;28;19982;-84
2022/07/24 11:30:20;;;;;;;;;;;22.40;87.80;;;;;;5045840;28;20007;-82
2022/07/24 11:32:47;;;;;;;;;;;22.50;87.50;;;;;;5045289;28;19925;-83
2022/07/24 11:35:16;;;;;;;;;;;22.50;87.50;;;;;;5061189;28;20021;-82
2022/07/24 11:37:43;;;;;;;;;;;22.50;87.20;;;;;;5042503;28;19940;-82
2022/07/24 11:40:15;;;;;;;;;;;22.50;87.20;;;;;;5045184;28;19924;-84
2022/07/24 11:42:42;;;;;;;;;;;22.50;86.70;;;;;;5045299;28;19926;-82
2022/07/24 11:45:09;;;;;;;;;;;22.50;86.40;;;;;;5037558;28;19932;-82
2022/07/24 11:47:36;;;;;;;;;;;22.50;86.50;;;;;;5042098;28;19972;-81
2022/07/24 11:50:05;;;;;;;;;;;22.60;86.10;;;;;;5051879;28;20528;-83
2022/07/24 11:52:34;;;;;;;;;;;22.60;86.60;;;;;;5043435;28;19953;-82
2022/07/24 11:55:02;;;;;;;;;;;22.60;86.90;;;;;;5044732;28;19925;-84
2022/07/24 11:57:30;;;;;;;;;;;22.70;87.20;;;;;;5046704;28;19960;-82
2022/07/24 11:59:57;;;;;;;;;;;22.70;87.30;;;;;;5055723;28;19973;-84
2022/07/24 12:02:24;;;;;;;;;;;22.70;87.30;;;;;;5046623;28;19960;-82
2022/07/24 12:04:51;;;;;;;;;;;22.70;87.20;;;;;;5057312;28;19925;-82
2022/07/24 12:07:19;;;;;;;;;;;22.80;87.30;;;;;;5049056;28;19931;-83
2022/07/24 12:09:49;;;;;;;;;;;22.80;86.60;;;;;;5050444;28;20042;-82
2022/07/24 12:12:33;;;;;;;;;;;22.80;86.30;;;;;;5047839;28;19952;-82
2022/07/24 12:15:02;;;;;;;;;;;22.90;85.60;;;;;;5042304;28;19924;-82
2022/07/24 12:17:29;;;;;;;;;;;22.90;86.00;;;;;;5043954;28;19931;-83
2022/07/24 12:19:58;;;;;;;;;;;22.90;85.50;;;;;;5047911;28;20006;-83
2022/07/24 12:22:26;;;;;;;;;;;23.00;85.20;;;;;;5049910;28;19965;-84
2022/07/24 12:24:55;;;;;;;;;;;23.00;84.80;;;;;;5049254;28;19925;-82
2022/07/24 12:27:35;;;;;;;;;;;23.00;84.90;;;;;;5042154;28;19933;-83
2022/07/24 12:30:02;;;;;;;;;;;23.00;84.30;;;;;;5045930;28;19925;-82
2022/07/24 12:32:29;;;;;;;;;;;23.10;84.10;;;;;;5046539;28;19959;-82
2022/07/24 12:34:56;;;;;;;;;;;23.10;84.10;;;;;;5044911;28;19924;-82
2022/07/24 12:37:23;;;;;;;;;;;23.10;84.60;;;;;;5047589;28;19933;-82
2022/07/24 12:39:50;;;;;;;;;;;23.20;85.60;;;;;;5044691;28;20399;-83
2022/07/24 12:42:19;;;;;;;;;;;23.20;85.50;;;;;;5060634;28;19932;-81
2022/07/24 12:44:46;;;;;;;;;;;23.20;85.50;;;;;;5044350;28;19931;-82
2022/07/24 12:47:13;;;;;;;;;;;23.30;85.50;;;;;;5050911;28;19925;-83
2022/07/24 12:49:40;;;;;;;;;;;23.30;85.00;;;;;;5048586;28;20354;-82
2022/07/24 12:52:19;;;;;;;;;;;23.30;85.10;;;;;;5043243;28;20189;-83
2022/07/24 12:54:46;;;;;;;;;;;23.40;85.20;;;;;;5045507;28;19971;-84
2022/07/24 12:57:13;;;;;;;;;;;23.40;85.40;;;;;;5047857;28;20012;-82
2022/07/24 12:59:44;;;;;;;;;;;23.50;85.60;;;;;;5045156;28;19936;-82
2022/07/24 13:02:12;;;;;;;;;;;23.50;85.80;;;;;;5043580;28;19975;-82
2022/07/24 13:04:41;;;;;;;;;;;23.50;85.70;;;;;;5053159;28;20444;-81
2022/07/24 13:07:09;;;;;;;;;;;23.60;85.90;;;;;;5053855;28;19924;-83
2022/07/24 13:09:36;;;;;;;;;;;23.60;86.00;;;;;;5046528;28;20381;-82
2022/07/24 13:12:03;;;;;;;;;;;23.60;86.00;;;;;;5042600;28;19933;-82
2022/07/24 13:14:30;;;;;;;;;;;23.70;86.10;;;;;;5051790;28;19982;-81
2022/07/24 13:17:04;;;;;;;;;;;23.70;86.00;;;;;;5045859;28;19925;-81
2022/07/24 13:19:31;;;;;;;;;;;23.80;86.10;;;;;;5041315;28;19929;-83
2022/07/24 13:21:57;;;;;;;;;;;23.80;86.00;;;;;;5043728;28;20035;-82
2022/07/24 13:24:25;;;;;;;;;;;23.90;85.90;;;;;;5044730;28;19925;-82
2022/07/24 13:26:52;;;;;;;;;;;24.00;85.50;;;;;;5045596;28;19924;-82
2022/07/24 13:29:19;;;;;;;;;;;24.00;84.80;;;;;;5043529;28;19925;-82
2022/07/24 13:31:46;;;;;;;;;;;24.10;84.60;;;;;;5041586;28;19925;-82
2022/07/24 13:34:14;;;;;;;;;;;24.20;84.80;;;;;;5046462;28;19936;-83
2022/07/24 13:36:41;;;;;;;;;;;24.20;85.20;;;;;;5053243;28;19936;-83
2022/07/24 13:39:08;;;;;;;;;;;24.20;85.50;;;;;;5040826;28;19928;-82
2022/07/24 13:41:35;;;;;;;;;;;24.30;84.60;;;;;;5041118;28;19929;-83
2022/07/24 13:44:03;;;;;;;;;;;24.40;84.90;;;;;;5038235;28;20395;-82
2022/07/24 13:46:30;;;;;;;;;;;24.50;84.80;;;;;;5039765;28;19959;-82
2022/07/24 13:48:57;;;;;;;;;;;24.50;85.10;;;;;;5050306;28;20392;-82
2022/07/24 13:51:26;;;;;;;;;;;24.60;85.40;;;;;;5047917;28;19936;-83
2022/07/24 13:53:53;;;;;;;;;;;24.60;84.50;;;;;;5041926;28;19931;-82
2022/07/24 13:56:21;;;;;;;;;;;24.60;85.20;;;;;;5046542;28;19987;-82
2022/07/24 13:58:48;;;;;;;;;;;;;;;;;;5051132;28;19924;-82
2022/07/24 14:01:17;;;;;;;;;;;24.70;85.30;;;;;;5045888;28;20318;-83
2022/07/24 14:03:44;;;;;;;;;;;24.80;85.90;;;;;;5040473;28;19970;-83
2022/07/24 14:06:11;;;;;;;;;;;24.90;86.20;;;;;;5043127;28;19978;-82
2022/07/24 14:08:41;;;;;;;;;;;24.90;86.30;;;;;;5047203;28;19990;-82
2022/07/24 14:11:08;;;;;;;;;;;24.90;86.30;;;;;;5040677;28;19960;-83
2022/07/24 14:13:35;;;;;;;;;;;25.00;86.30;;;;;;5046653;28;19924;-82
2022/07/24 14:16:01;;;;;;;;;;;25.00;86.30;;;;;;5041841;28;19933;-82
2022/07/24 14:18:28;;;;;;;;;;;25.10;85.40;;;;;;5043381;28;19932;-83
2022/07/24 14:20:55;;;;;;;;;;;25.20;85.50;;;;;;5045014;28;19925;-82
2022/07/24 14:23:22;;;;;;;;;;;25.20;85.60;;;;;;5042342;28;20330;-82